createdAt,value
2019-04-30T00:00:06.189Z,10.87
2019-04-30T00:02:48.273Z,10.67
2019-04-30T00:05:18.733Z,9.83
2019-04-30T00:07:50.807Z,10.37
2019-04-30T00:10:18.159Z,8.93
2019-04-30T00:12:46.729Z,8.90
2019-04-30T00:15:16.130Z,9.17
2019-04-30T00:17:46.032Z,10.27
2019-04-30T00:20:17.759Z,10.03
2019-04-30T00:22:49.416Z,11.87
2019-04-30T00:25:19.701Z,9.60
2019-04-30T00:27:48.094Z,9.57
2019-04-30T00:30:16.457Z,8.73
2019-04-30T00:32:46.920Z,10.43
2019-04-30T00:35:16.275Z,9.68
2019-04-30T00:37:47.440Z,11.20
2019-04-30T00:40:15.492Z,16.17
2019-04-30T00:42:45.675Z,12.13
2019-04-30T00:45:15.430Z,13.40
2019-04-30T00:47:47.798Z,13.53
2019-04-30T00:50:14.953Z,10.97
2019-04-30T00:52:43.649Z,12.03
2019-04-30T00:55:12.116Z,12.17
2019-04-30T00:57:43.863Z,10.30
2019-04-30T01:00:19.619Z,13.10
2019-04-30T01:02:48.236Z,12.20
2019-04-30T01:05:18.296Z,10.47
2019-04-30T01:07:50.202Z,10.30
2019-04-30T01:10:19.735Z,10.73
2019-04-30T01:12:50.156Z,9.00
2019-04-30T01:15:19.051Z,10.37
2019-04-30T01:17:50.974Z,8.23
2019-04-30T01:20:19.626Z,9.87
2019-04-30T01:22:48.694Z,10.40
2019-04-30T01:25:18.754Z,10.83
2019-04-30T01:27:49.094Z,10.97
2019-04-30T01:30:22.760Z,10.60
2019-04-30T01:32:56.214Z,13.03
2019-04-30T01:35:23.810Z,11.30
2019-04-30T01:37:49.855Z,12.30
2019-04-30T01:40:18.976Z,12.47
2019-04-30T01:42:50.763Z,12.50
2019-04-30T01:45:18.815Z,11.93
2019-04-30T01:47:49.482Z,10.30
2019-04-30T01:50:19.285Z,10.87
2019-04-30T01:52:53.649Z,13.77
2019-04-30T01:55:41.686Z,14.53
2019-04-30T01:58:19.398Z,16.10
2019-04-30T02:00:55.337Z,13.90
2019-04-30T02:03:23.759Z,12.57
2019-04-30T02:05:52.145Z,13.00
2019-04-30T02:08:20.560Z,14.17
2019-04-30T02:10:51.281Z,14.27
2019-04-30T02:13:19.262Z,14.67
2019-04-30T02:15:49.225Z,19.00
2019-04-30T02:18:19.545Z,16.47
2019-04-30T02:20:49.709Z,18.47
2019-04-30T02:23:19.634Z,17.53
2019-04-30T02:25:49.048Z,23.07
2019-04-30T02:28:18.948Z,21.70
2019-04-30T02:30:50.089Z,27.27
2019-04-30T02:33:19.831Z,40.17
2019-04-30T02:35:50.149Z,34.27
2019-04-30T02:38:20.474Z,35.57
2019-04-30T02:40:50.623Z,37.73
2019-04-30T02:43:20.963Z,33.33
2019-04-30T02:45:51.306Z,32.08
2019-04-30T02:48:23.344Z,28.93
2019-04-30T02:50:53.545Z,32.60
2019-04-30T02:53:51.011Z,38.20
2019-04-30T02:56:20.455Z,36.97
2019-04-30T02:58:50.800Z,33.00
2019-04-30T03:01:20.227Z,34.03
2019-04-30T03:03:50.104Z,33.93
2019-04-30T03:06:20.543Z,37.20
2019-04-30T03:08:51.067Z,36.37
2019-04-30T03:11:20.777Z,37.57
2019-04-30T03:13:49.627Z,34.77
2019-04-30T03:16:20.706Z,35.77
2019-04-30T03:18:51.004Z,36.63
2019-04-30T03:21:41.493Z,37.17
2019-04-30T03:24:10.980Z,37.47
2019-04-30T03:26:40.197Z,39.17
2019-04-30T03:29:11.335Z,36.57
2019-04-30T03:31:44.057Z,37.20
2019-04-30T03:34:16.689Z,42.43
2019-04-30T03:36:40.627Z,37.90
2019-04-30T03:39:10.877Z,35.73
2019-04-30T03:41:41.381Z,38.33
2019-04-30T03:44:20.843Z,37.73
2019-04-30T03:46:40.324Z,44.60
2019-04-30T03:49:12.599Z,47.93
2019-04-30T03:51:40.361Z,42.90
2019-04-30T03:54:10.025Z,43.00
2019-04-30T03:56:39.649Z,43.07
2019-04-30T03:59:10.513Z,50.83
2019-04-30T04:01:52.073Z,49.30
2019-04-30T04:04:24.823Z,47.03
2019-04-30T04:06:54.860Z,77.03
2019-04-30T04:09:30.024Z,55.43
2019-04-30T04:11:59.939Z,51.63
2019-04-30T04:14:29.640Z,51.50
2019-04-30T04:17:00.107Z,47.53
2019-04-30T04:19:29.248Z,55.47
2019-04-30T04:21:59.967Z,64.87
2019-04-30T04:24:30.085Z,58.90
2019-04-30T04:26:59.687Z,75.97
2019-04-30T04:29:29.855Z,91.40
2019-04-30T04:32:00.739Z,99.83
2019-04-30T04:34:30.257Z,96.00
2019-04-30T04:37:00.089Z,97.53
2019-04-30T04:39:29.771Z,91.03
2019-04-30T04:41:59.982Z,88.60
2019-04-30T04:44:29.478Z,90.40
2019-04-30T04:47:00.160Z,95.33
2019-04-30T04:49:30.587Z,85.90
2019-04-30T04:51:59.185Z,82.00
2019-04-30T04:54:29.818Z,78.73
2019-04-30T04:57:11.101Z,94.70
2019-04-30T04:59:29.726Z,84.37
2019-04-30T05:02:01.547Z,122.77
2019-04-30T05:04:29.968Z,83.07
2019-04-30T05:07:00.041Z,82.67
2019-04-30T05:09:28.670Z,86.73
2019-04-30T05:11:58.590Z,76.43
2019-04-30T05:14:28.795Z,69.37
2019-04-30T05:16:58.684Z,71.93
2019-04-30T05:19:28.583Z,70.00
2019-04-30T05:21:57.065Z,73.47
2019-04-30T05:24:25.961Z,69.58
2019-04-30T05:26:54.361Z,72.60
2019-04-30T05:29:22.754Z,77.03
2019-04-30T05:31:51.186Z,73.00
2019-04-30T05:34:19.573Z,65.93
2019-04-30T05:36:49.043Z,72.60
2019-04-30T05:39:19.149Z,65.92
2019-04-30T05:41:49.148Z,74.67
2019-04-30T05:44:18.541Z,74.23
2019-04-30T05:46:47.056Z,70.50
2019-04-30T05:49:15.622Z,70.67
2019-04-30T05:51:54.934Z,70.03
2019-04-30T05:54:14.135Z,67.50
2019-04-30T05:56:42.815Z,70.25
2019-04-30T05:59:11.429Z,65.80
2019-04-30T06:01:39.831Z,63.63
2019-04-30T06:04:09.544Z,63.07
2019-04-30T06:06:38.853Z,64.03
2019-04-30T06:09:28.929Z,62.83
2019-04-30T06:11:59.558Z,66.73
2019-04-30T06:14:49.893Z,68.57
2019-04-30T06:17:32.095Z,61.47
2019-04-30T06:20:00.579Z,59.50
2019-04-30T06:22:29.426Z,60.20
2019-04-30T06:24:59.466Z,49.37
2019-04-30T06:27:29.136Z,53.67
2019-04-30T06:29:58.526Z,48.17
2019-04-30T06:32:27.037Z,50.33
2019-04-30T06:34:55.851Z,50.00
2019-04-30T06:37:24.524Z,50.33
2019-04-30T06:39:52.925Z,50.60
2019-04-30T06:42:21.501Z,49.50
2019-04-30T06:44:50.437Z,44.77
2019-04-30T06:47:32.211Z,43.57
2019-04-30T06:49:49.441Z,42.93
2019-04-30T06:52:21.387Z,41.23
2019-04-30T06:54:49.835Z,43.10
2019-04-30T06:57:19.902Z,41.87
2019-04-30T06:59:51.284Z,37.23
2019-04-30T07:02:19.654Z,41.23
2019-04-30T07:04:49.154Z,43.30
2019-04-30T07:07:19.242Z,35.90
2019-04-30T07:09:58.612Z,35.77
2019-04-30T07:12:30.285Z,41.70
2019-04-30T07:14:59.179Z,37.27
2019-04-30T07:17:29.237Z,35.70
2019-04-30T07:19:59.523Z,35.03
2019-04-30T07:22:37.643Z,39.27
2019-04-30T07:24:59.526Z,48.03
2019-04-30T07:27:30.144Z,35.43
2019-04-30T07:29:59.594Z,36.53
2019-04-30T07:32:28.789Z,34.20
2019-04-30T07:34:59.284Z,31.30
2019-04-30T07:37:29.214Z,31.63
2019-04-30T07:39:58.930Z,32.73
2019-04-30T07:42:29.499Z,32.40
2019-04-30T07:45:00.426Z,33.67
2019-04-30T07:47:29.573Z,42.10
2019-04-30T07:50:00.466Z,39.17
2019-04-30T07:52:33.292Z,33.03
2019-04-30T07:55:00.619Z,38.00
2019-04-30T07:57:29.247Z,34.70
2019-04-30T08:00:00.522Z,31.13
2019-04-30T08:02:36.102Z,36.47
2019-04-30T08:05:04.980Z,37.93
2019-04-30T08:07:33.411Z,34.47
2019-04-30T08:10:02.108Z,35.53
2019-04-30T08:12:35.186Z,35.63
2019-04-30T08:15:00.641Z,30.87
2019-04-30T08:17:29.228Z,31.70
2019-04-30T08:19:58.743Z,30.27
2019-04-30T08:22:27.285Z,28.93
2019-04-30T08:24:55.997Z,32.15
2019-04-30T08:27:24.405Z,31.07
2019-04-30T08:29:52.806Z,30.53
2019-04-30T08:32:21.246Z,32.43
2019-04-30T08:34:50.218Z,33.23
2019-04-30T08:37:20.279Z,33.03
2019-04-30T08:39:49.717Z,35.43
2019-04-30T08:42:29.000Z,35.90
2019-04-30T08:44:48.604Z,34.40
2019-04-30T08:47:20.954Z,36.20
2019-04-30T08:49:49.599Z,31.63
2019-04-30T08:52:19.396Z,31.27
2019-04-30T08:54:49.469Z,34.10
2019-04-30T08:57:19.054Z,34.17
2019-04-30T08:59:49.511Z,32.17
2019-04-30T09:02:19.704Z,34.80
2019-04-30T09:04:49.885Z,34.00
2019-04-30T09:07:19.703Z,34.13
2019-04-30T09:09:48.834Z,36.50
2019-04-30T09:12:19.403Z,40.13
2019-04-30T09:14:49.084Z,39.40
2019-04-30T09:17:19.728Z,38.30
2019-04-30T09:19:49.026Z,41.77
2019-04-30T09:22:19.428Z,42.23
2019-04-30T09:24:49.649Z,40.37
2019-04-30T09:27:19.585Z,38.43
2019-04-30T09:29:49.248Z,37.90
2019-04-30T09:32:19.362Z,37.73
2019-04-30T09:34:48.844Z,36.30
2019-04-30T09:37:18.696Z,37.70
2019-04-30T09:39:49.245Z,38.53
2019-04-30T09:42:19.523Z,36.10
2019-04-30T09:44:49.224Z,40.27
2019-04-30T09:47:19.917Z,39.18
2019-04-30T09:49:49.363Z,35.87
2019-04-30T09:52:19.307Z,35.80
2019-04-30T09:54:50.040Z,37.33
2019-04-30T09:57:19.282Z,47.27
2019-04-30T09:59:48.624Z,43.00
2019-04-30T10:02:19.178Z,35.53
2019-04-30T10:04:48.074Z,41.13
2019-04-30T10:07:16.741Z,36.23
2019-04-30T10:09:45.158Z,37.27
2019-04-30T10:12:16.938Z,41.30
2019-04-30T10:14:45.401Z,34.20
2019-04-30T10:17:18.191Z,36.33
2019-04-30T10:19:46.586Z,35.43
2019-04-30T10:22:15.049Z,39.00
2019-04-30T10:24:43.546Z,41.50
2019-04-30T10:27:13.448Z,41.03
2019-04-30T10:29:42.658Z,34.17
2019-04-30T10:32:11.690Z,37.60
2019-04-30T10:34:40.470Z,36.33
2019-04-30T10:37:09.077Z,37.27
2019-04-30T10:39:38.929Z,34.27
2019-04-30T10:42:07.756Z,32.57
2019-04-30T10:44:36.515Z,34.30
2019-04-30T10:47:05.138Z,37.40
2019-04-30T10:49:33.784Z,34.33
2019-04-30T10:52:02.181Z,36.00
2019-04-30T10:54:30.610Z,33.00
2019-04-30T10:56:59.288Z,37.30
2019-04-30T10:59:27.781Z,31.30
2019-04-30T11:01:56.221Z,36.37
2019-04-30T11:04:25.456Z,32.27
2019-04-30T11:06:53.857Z,37.30
2019-04-30T11:09:22.336Z,33.20
2019-04-30T11:11:50.733Z,38.77
2019-04-30T11:14:19.164Z,31.33
2019-04-30T11:16:51.238Z,35.13
2019-04-30T11:19:19.280Z,35.60
2019-04-30T11:21:48.098Z,32.43
2019-04-30T11:24:18.994Z,33.43
2019-04-30T11:26:49.492Z,32.97
2019-04-30T11:29:17.411Z,37.07
2019-04-30T11:31:57.164Z,30.00
2019-04-30T11:34:28.058Z,33.57
2019-04-30T11:36:55.896Z,32.33
2019-04-30T11:39:24.743Z,34.47
2019-04-30T11:41:53.255Z,34.37
2019-04-30T11:44:30.625Z,35.03
2019-04-30T11:47:01.037Z,40.13
2019-04-30T11:49:29.675Z,33.67
2019-04-30T11:51:58.161Z,34.53
2019-04-30T11:54:26.570Z,34.60
2019-04-30T11:56:54.966Z,31.40
2019-04-30T11:59:23.361Z,28.27
2019-04-30T12:01:53.439Z,36.53
2019-04-30T12:04:21.844Z,31.17
2019-04-30T12:06:50.704Z,36.17
2019-04-30T12:09:38.575Z,36.50
2019-04-30T12:12:09.037Z,33.80
2019-04-30T12:14:37.117Z,30.50
2019-04-30T12:17:05.566Z,36.77
2019-04-30T12:19:33.973Z,35.27
2019-04-30T12:22:02.397Z,36.43
2019-04-30T12:24:30.819Z,37.90
2019-04-30T12:26:59.218Z,33.60
2019-04-30T12:29:29.159Z,31.97
2019-04-30T12:31:57.631Z,35.93
2019-04-30T12:34:26.039Z,38.60
2019-04-30T12:36:54.767Z,33.47
2019-04-30T12:39:23.188Z,28.23
2019-04-30T12:41:51.844Z,28.03
2019-04-30T12:44:20.311Z,27.43
2019-04-30T12:46:48.745Z,30.83
2019-04-30T12:49:18.983Z,31.80
2019-04-30T12:51:50.572Z,26.03
2019-04-30T12:54:26.817Z,26.37
2019-04-30T12:57:02.430Z,35.70
2019-04-30T12:59:30.952Z,24.80
2019-04-30T13:01:59.438Z,28.67
2019-04-30T13:04:29.328Z,34.13
2019-04-30T13:07:01.634Z,28.47
2019-04-30T13:09:30.089Z,27.37
2019-04-30T13:12:00.596Z,23.77
2019-04-30T13:14:30.043Z,25.77
2019-04-30T13:16:59.038Z,25.93
2019-04-30T13:19:27.640Z,32.07
2019-04-30T13:21:58.598Z,30.83
2019-04-30T13:24:26.345Z,23.13
2019-04-30T13:26:54.769Z,20.43
2019-04-30T13:29:25.107Z,21.23
2019-04-30T13:31:53.553Z,26.40
2019-04-30T13:34:39.999Z,24.07
2019-04-30T13:37:09.307Z,22.07
2019-04-30T13:39:52.132Z,21.90
2019-04-30T13:42:20.590Z,23.10
2019-04-30T13:44:49.447Z,18.90
2019-04-30T13:47:19.208Z,20.07
2019-04-30T13:49:49.405Z,22.03
2019-04-30T13:52:17.936Z,21.10
2019-04-30T13:54:46.346Z,18.63
2019-04-30T13:57:14.837Z,20.00
2019-04-30T13:59:43.235Z,18.47
2019-04-30T14:02:11.644Z,18.70
2019-04-30T14:04:41.705Z,18.87
2019-04-30T14:07:14.735Z,18.63
2019-04-30T14:09:43.131Z,18.20
2019-04-30T14:12:11.811Z,19.27
2019-04-30T14:14:40.212Z,23.27
2019-04-30T14:17:09.255Z,21.67
2019-04-30T14:19:37.814Z,19.67
2019-04-30T14:22:08.963Z,18.70
2019-04-30T14:24:37.474Z,18.33
2019-04-30T14:27:06.002Z,16.53
2019-04-30T14:29:34.403Z,16.63
2019-04-30T14:32:02.872Z,14.50
2019-04-30T14:34:31.415Z,16.57
2019-04-30T14:36:59.818Z,17.20
2019-04-30T14:39:29.185Z,17.87
2019-04-30T14:41:59.994Z,15.83
2019-04-30T14:44:31.864Z,15.93
2019-04-30T14:47:12.462Z,19.43
2019-04-30T14:49:42.490Z,17.87
2019-04-30T14:52:11.123Z,20.00
2019-04-30T14:54:41.212Z,18.53
2019-04-30T14:57:16.765Z,17.77
2019-04-30T14:59:52.819Z,17.23
2019-04-30T15:02:29.609Z,18.82
2019-04-30T15:04:58.731Z,20.73
2019-04-30T15:07:27.343Z,20.37
2019-04-30T15:09:55.811Z,17.93
2019-04-30T15:12:24.219Z,19.23
2019-04-30T15:14:52.634Z,17.70
2019-04-30T15:17:21.032Z,19.03
2019-04-30T15:19:54.253Z,21.57
2019-04-30T15:22:19.559Z,19.00
2019-04-30T15:24:49.219Z,21.40
2019-04-30T15:27:19.127Z,18.93
2019-04-30T15:29:56.584Z,25.03
2019-04-30T15:32:18.597Z,19.33
2019-04-30T15:34:48.923Z,19.07
2019-04-30T15:37:21.218Z,19.47
2019-04-30T15:39:48.970Z,20.87
2019-04-30T15:42:18.643Z,16.77
2019-04-30T15:44:47.044Z,17.00
2019-04-30T15:47:15.716Z,20.63
2019-04-30T15:49:44.108Z,21.47
2019-04-30T15:52:12.652Z,19.87
2019-04-30T15:54:41.066Z,18.60
2019-04-30T15:57:09.467Z,19.40
2019-04-30T15:59:39.750Z,19.53
2019-04-30T16:02:10.284Z,18.77
2019-04-30T16:04:56.722Z,18.57
2019-04-30T16:07:25.144Z,20.83
2019-04-30T16:10:04.113Z,18.47
2019-04-30T16:12:34.440Z,23.07
2019-04-30T16:15:02.821Z,17.27
2019-04-30T16:17:31.229Z,19.33
2019-04-30T16:19:59.656Z,18.90
2019-04-30T16:22:29.187Z,18.10
2019-04-30T16:25:00.425Z,17.90
2019-04-30T16:27:28.025Z,19.30
2019-04-30T16:29:56.495Z,20.23
2019-04-30T16:32:24.911Z,21.20
2019-04-30T16:34:53.405Z,17.70
2019-04-30T16:37:21.807Z,22.73
2019-04-30T16:39:50.203Z,20.60
2019-04-30T16:42:19.145Z,21.83
2019-04-30T16:44:47.618Z,18.00
2019-04-30T16:47:17.118Z,19.50
2019-04-30T16:49:45.887Z,18.80
2019-04-30T16:52:14.581Z,16.43
2019-04-30T16:54:42.986Z,15.97
2019-04-30T16:57:11.417Z,21.33
2019-04-30T16:59:41.455Z,18.07
2019-04-30T17:02:10.597Z,20.57
2019-04-30T17:04:43.550Z,18.03
2019-04-30T17:07:13.590Z,18.80
2019-04-30T17:09:43.971Z,22.03
2019-04-30T17:12:14.042Z,17.63
2019-04-30T17:14:43.633Z,20.43
2019-04-30T17:17:12.017Z,20.90
2019-04-30T17:19:40.442Z,21.33
2019-04-30T17:22:08.852Z,18.17
2019-04-30T17:24:39.228Z,19.47
2019-04-30T17:27:18.705Z,18.37
2019-04-30T17:29:37.597Z,19.40
2019-04-30T17:32:05.999Z,22.23
2019-04-30T17:34:34.423Z,19.40
2019-04-30T17:37:02.822Z,25.50
2019-04-30T17:39:31.291Z,20.77
2019-04-30T17:41:59.715Z,21.43
2019-04-30T17:44:28.912Z,24.37
2019-04-30T17:46:57.642Z,19.97
2019-04-30T17:49:26.064Z,20.00
2019-04-30T17:51:54.471Z,19.57
2019-04-30T17:54:23.050Z,23.57
2019-04-30T17:56:51.462Z,23.07
2019-04-30T17:59:19.871Z,21.47
2019-04-30T18:01:59.686Z,22.10
2019-04-30T18:04:29.684Z,20.10
2019-04-30T18:06:59.106Z,19.63
2019-04-30T18:09:29.205Z,19.70
2019-04-30T18:11:59.472Z,21.80
2019-04-30T18:14:28.578Z,21.07
2019-04-30T18:16:59.320Z,21.87
2019-04-30T18:19:29.109Z,23.38
2019-04-30T18:21:59.717Z,25.33
2019-04-30T18:24:39.362Z,23.70
2019-04-30T18:27:21.501Z,23.97
2019-04-30T18:29:50.246Z,22.20
2019-04-30T18:32:19.712Z,25.73
2019-04-30T18:34:49.119Z,23.67
2019-04-30T18:37:18.895Z,25.70
2019-04-30T18:39:47.317Z,20.40
2019-04-30T18:42:15.784Z,21.77
2019-04-30T18:44:44.336Z,20.83
2019-04-30T18:47:12.735Z,23.60
2019-04-30T18:49:41.137Z,20.17
2019-04-30T18:52:09.631Z,18.40
2019-04-30T18:54:39.718Z,17.93
2019-04-30T18:57:08.290Z,20.40
2019-04-30T18:59:36.864Z,18.70
2019-04-30T19:02:06.981Z,21.20
2019-04-30T19:04:38.338Z,20.80
2019-04-30T19:07:07.402Z,23.13
2019-04-30T19:09:43.653Z,22.63
2019-04-30T19:12:31.915Z,19.57
2019-04-30T19:15:04.918Z,18.57
2019-04-30T19:17:49.568Z,16.33
2019-04-30T19:20:25.802Z,19.17
2019-04-30T19:22:54.197Z,18.50
2019-04-30T19:25:22.629Z,14.07
2019-04-30T19:27:51.032Z,16.07
2019-04-30T19:30:19.772Z,15.23
2019-04-30T19:32:49.119Z,16.00
2019-04-30T19:35:18.767Z,19.40
2019-04-30T19:37:48.691Z,18.00
2019-04-30T19:40:19.000Z,17.43
2019-04-30T19:42:50.324Z,22.13
2019-04-30T19:45:17.957Z,16.50
2019-04-30T19:47:46.360Z,17.30
2019-04-30T19:50:14.929Z,16.10
2019-04-30T19:52:43.332Z,14.97
2019-04-30T19:55:11.927Z,17.97
2019-04-30T19:57:40.336Z,18.17
2019-04-30T20:00:09.411Z,19.37
2019-04-30T20:02:39.193Z,16.23
2019-04-30T20:05:09.037Z,18.77
2019-04-30T20:07:37.474Z,21.07
2019-04-30T20:10:09.021Z,18.17
2019-04-30T20:12:38.871Z,18.83
2019-04-30T20:15:17.221Z,22.30
2019-04-30T20:17:38.566Z,20.27
2019-04-30T20:20:08.965Z,17.27
2019-04-30T20:22:38.964Z,22.98
2019-04-30T20:25:09.256Z,21.57
2019-04-30T20:27:39.563Z,25.63
2019-04-30T20:30:09.545Z,24.50
2019-04-30T20:32:38.400Z,21.33
2019-04-30T20:35:09.587Z,22.93
2019-04-30T20:37:55.477Z,22.53
2019-04-30T20:40:25.653Z,20.30
2019-04-30T20:42:54.064Z,21.30
2019-04-30T20:45:22.714Z,24.60
2019-04-30T20:47:51.374Z,24.27
2019-04-30T20:50:19.763Z,21.37
2019-04-30T20:52:49.065Z,22.60
2019-04-30T20:55:17.557Z,24.00
2019-04-30T20:57:45.906Z,23.50
2019-04-30T21:00:15.138Z,19.87
2019-04-30T21:02:43.527Z,24.80
2019-04-30T21:05:12.063Z,20.33
2019-04-30T21:07:40.575Z,25.00
2019-04-30T21:10:10.102Z,25.30
2019-04-30T21:12:39.661Z,22.23
2019-04-30T21:15:09.679Z,21.53
2019-04-30T21:17:38.264Z,21.20
2019-04-30T21:20:09.476Z,20.53
2019-04-30T21:22:38.865Z,21.47
2019-04-30T21:25:10.952Z,23.73
2019-04-30T21:27:40.115Z,25.57
2019-04-30T21:30:09.981Z,23.60
2019-04-30T21:32:52.171Z,24.07
2019-04-30T21:35:24.664Z,20.83
2019-04-30T21:37:54.871Z,17.90
2019-04-30T21:40:23.432Z,17.67
2019-04-30T21:42:51.928Z,21.90
2019-04-30T21:45:20.328Z,20.77
2019-04-30T21:47:56.097Z,25.50
2019-04-30T21:50:19.683Z,21.13
2019-04-30T21:52:49.562Z,22.43
2019-04-30T21:55:19.658Z,19.87
2019-04-30T21:57:49.638Z,19.50
2019-04-30T22:00:36.782Z,17.50
2019-04-30T22:03:07.164Z,22.63
2019-04-30T22:05:35.702Z,22.97
2019-04-30T22:08:05.434Z,21.80
2019-04-30T22:10:33.859Z,19.93
2019-04-30T22:13:02.559Z,20.68
2019-04-30T22:15:30.954Z,21.57
2019-04-30T22:17:59.380Z,21.63
2019-04-30T22:20:29.212Z,17.70
2019-04-30T22:22:57.640Z,19.10
2019-04-30T22:25:26.056Z,20.03
2019-04-30T22:27:54.442Z,16.87
2019-04-30T22:30:22.846Z,18.70
2019-04-30T22:32:51.259Z,23.33
2019-04-30T22:35:21.299Z,22.20
2019-04-30T22:37:51.332Z,21.07
2019-04-30T22:40:19.749Z,20.90
2019-04-30T22:42:49.536Z,19.27
2019-04-30T22:45:19.651Z,18.27
2019-04-30T22:47:50.224Z,20.07
2019-04-30T22:50:18.255Z,16.37
2019-04-30T22:52:46.658Z,18.53
2019-04-30T22:55:15.222Z,19.53
2019-04-30T22:57:43.619Z,19.13
2019-04-30T23:00:15.133Z,17.30
2019-04-30T23:03:03.307Z,19.07
2019-04-30T23:05:31.709Z,22.97
2019-04-30T23:08:00.176Z,23.13
2019-04-30T23:10:28.595Z,24.73
2019-04-30T23:12:57.061Z,24.97
2019-04-30T23:15:25.522Z,25.47
2019-04-30T23:17:54.019Z,23.47
2019-04-30T23:20:22.419Z,24.10
2019-04-30T23:22:50.808Z,24.37
2019-04-30T23:25:19.230Z,21.97
2019-04-30T23:27:47.628Z,20.00
2019-04-30T23:30:16.497Z,19.97
2019-04-30T23:32:44.908Z,19.03
2019-04-30T23:35:13.373Z,20.80
2019-04-30T23:37:42.056Z,22.67
2019-04-30T23:40:28.738Z,17.80
2019-04-30T23:42:57.278Z,17.53
2019-04-30T23:45:26.013Z,17.83
2019-04-30T23:47:54.579Z,17.87
2019-04-30T23:50:23.051Z,18.47
2019-04-30T23:52:51.507Z,19.57
2019-04-30T23:55:19.927Z,22.50
2019-04-30T23:57:48.320Z,21.43
